sensor_id;sensor_type;location;lat;lon;timestamp;temperature;humidity
7248;DHT22;3665;51.034;13.642;2022-08-19T00:03:38;20.00;99.90
7248;DHT22;3665;51.034;13.642;2022-08-19T00:08:23;19.90;99.90
7248;DHT22;3665;51.034;13.642;2022-08-19T00:13:07;19.80;99.90
7248;DHT22;3665;51.034;13.642;2022-08-19T00:17:54;19.80;1.00
7248;DHT22;3665;51.034;13.642;2022-08-19T00:22:48;19.80;1.00
7248;DHT22;3665;51.034;13.642;2022-08-19T00:27:31;19.70;1.00
7248;DHT22;3665;51.034;13.642;2022-08-19T00:32:15;19.60;99.90
7248;DHT22;3665;51.034;13.642;2022-08-19T00:37:01;19.70;1.00
7248;DHT22;3665;51.034;13.642;2022-08-19T00:41:50;19.70;6.30
7248;DHT22;3665;51.034;13.642;2022-08-19T00:46:36;19.60;1.00
7248;DHT22;3665;51.034;13.642;2022-08-19T00:51:19;19.60;99.90
7248;DHT22;3665;51.034;13.642;2022-08-19T00:56:06;19.70;1.00
7248;DHT22;3665;51.034;13.642;2022-08-19T01:00:50;19.70;1.00
7248;DHT22;3665;51.034;13.642;2022-08-19T01:05:35;19.80;1.00
7248;DHT22;3665;51.034;13.642;2022-08-19T01:10:23;19.70;99.90
7248;DHT22;3665;51.034;13.642;2022-08-19T01:15:11;19.80;92.80
7248;DHT22;3665;51.034;13.642;2022-08-19T01:19:55;19.80;99.90
7248;DHT22;3665;51.034;13.642;2022-08-19T01:24:41;19.80;99.90
7248;DHT22;3665;51.034;13.642;2022-08-19T01:29:31;19.80;1.00
7248;DHT22;3665;51.034;13.642;2022-08-19T01:34:14;19.70;1.00
7248;DHT22;3665;51.034;13.642;2022-08-19T01:38:59;19.70;1.00
7248;DHT22;3665;51.034;13.642;2022-08-19T01:43:45;19.80;99.90
7248;DHT22;3665;51.034;13.642;2022-08-19T01:48:48;19.80;1.00
7248;DHT22;3665;51.034;13.642;2022-08-19T01:53:32;19.80;1.00
7248;DHT22;3665;51.034;13.642;2022-08-19T01:58:19;19.90;99.90
7248;DHT22;3665;51.034;13.642;2022-08-19T02:03:05;20.00;99.90
7248;DHT22;3665;51.034;13.642;2022-08-19T02:07:49;19.90;99.90
7248;DHT22;3665;51.034;13.642;2022-08-19T02:12:34;20.00;99.90
7248;DHT22;3665;51.034;13.642;2022-08-19T02:17:18;20.00;6.50
7248;DHT22;3665;51.034;13.642;2022-08-19T02:22:04;20.00;99.90
7248;DHT22;3665;51.034;13.642;2022-08-19T02:26:48;20.00;47.90
7248;DHT22;3665;51.034;13.642;2022-08-19T02:31:31;20.00;99.90
7248;DHT22;3665;51.034;13.642;2022-08-19T02:36:16;20.00;99.90
7248;DHT22;3665;51.034;13.642;2022-08-19T02:41:10;20.10;99.90
7248;DHT22;3665;51.034;13.642;2022-08-19T02:45:54;19.90;99.90
7248;DHT22;3665;51.034;13.642;2022-08-19T02:50:38;20.10;1.00
7248;DHT22;3665;51.034;13.642;2022-08-19T02:55:34;20.00;99.90
7248;DHT22;3665;51.034;13.642;2022-08-19T03:00:29;20.00;99.90
7248;DHT22;3665;51.034;13.642;2022-08-19T03:05:14;20.10;1.00
7248;DHT22;3665;51.034;13.642;2022-08-19T03:09:58;20.00;1.00
7248;DHT22;3665;51.034;13.642;2022-08-19T03:14:43;20.10;95.10
7248;DHT22;3665;51.034;13.642;2022-08-19T03:19:30;20.00;80.60
7248;DHT22;3665;51.034;13.642;2022-08-19T03:24:15;20.00;18.50
7248;DHT22;3665;51.034;13.642;2022-08-19T03:29:02;20.10;1.00
7248;DHT22;3665;51.034;13.642;2022-08-19T03:33:46;20.00;99.90
7248;DHT22;3665;51.034;13.642;2022-08-19T03:38:34;20.00;1.00
7248;DHT22;3665;51.034;13.642;2022-08-19T03:43:17;20.00;1.00
7248;DHT22;3665;51.034;13.642;2022-08-19T03:48:01;20.00;1.00
7248;DHT22;3665;51.034;13.642;2022-08-19T03:52:48;20.00;99.90
7248;DHT22;3665;51.034;13.642;2022-08-19T03:57:34;20.00;99.90
7248;DHT22;3665;51.034;13.642;2022-08-19T04:02:18;20.00;99.90
7248;DHT22;3665;51.034;13.642;2022-08-19T04:07:01;20.00;1.00
7248;DHT22;3665;51.034;13.642;2022-08-19T04:11:48;20.00;1.00
7248;DHT22;3665;51.034;13.642;2022-08-19T04:16:35;20.00;99.90
7248;DHT22;3665;51.034;13.642;2022-08-19T04:21:21;20.00;1.00
7248;DHT22;3665;51.034;13.642;2022-08-19T04:26:05;20.00;1.00
7248;DHT22;3665;51.034;13.642;2022-08-19T04:30:55;20.00;1.00
7248;DHT22;3665;51.034;13.642;2022-08-19T04:35:43;20.00;1.00
7248;DHT22;3665;51.034;13.642;2022-08-19T04:40:27;20.10;1.00
7248;DHT22;3665;51.034;13.642;2022-08-19T04:45:28;20.10;1.00
7248;DHT22;3665;51.034;13.642;2022-08-19T04:50:25;20.00;1.00
7248;DHT22;3665;51.034;13.642;2022-08-19T04:55:11;20.00;1.00
7248;DHT22;3665;51.034;13.642;2022-08-19T04:59:56;19.90;99.90
7248;DHT22;3665;51.034;13.642;2022-08-19T05:04:41;19.90;1.00
7248;DHT22;3665;51.034;13.642;2022-08-19T05:09:24;19.90;99.90
7248;DHT22;3665;51.034;13.642;2022-08-19T05:14:11;20.00;26.40
7248;DHT22;3665;51.034;13.642;2022-08-19T05:18:56;20.00;1.00
7248;DHT22;3665;51.034;13.642;2022-08-19T05:23:57;20.00;1.00
7248;DHT22;3665;51.034;13.642;2022-08-19T05:28:41;19.80;1.00
7248;DHT22;3665;51.034;13.642;2022-08-19T05:33:26;19.80;99.90
7248;DHT22;3665;51.034;13.642;2022-08-19T05:38:10;19.80;1.00
7248;DHT22;3665;51.034;13.642;2022-08-19T05:42:54;19.90;1.00
7248;DHT22;3665;51.034;13.642;2022-08-19T05:47:38;19.90;1.00
7248;DHT22;3665;51.034;13.642;2022-08-19T05:52:25;19.80;1.00
7248;DHT22;3665;51.034;13.642;2022-08-19T05:57:11;19.90;1.00
7248;DHT22;3665;51.034;13.642;2022-08-19T06:01:55;19.90;1.00
7248;DHT22;3665;51.034;13.642;2022-08-19T06:06:40;19.70;1.00
7248;DHT22;3665;51.034;13.642;2022-08-19T06:11:34;19.70;1.00
7248;DHT22;3665;51.034;13.642;2022-08-19T06:16:19;19.70;1.00
7248;DHT22;3665;51.034;13.642;2022-08-19T06:21:04;19.80;1.00
7248;DHT22;3665;51.034;13.642;2022-08-19T06:25:48;19.80;1.00
7248;DHT22;3665;51.034;13.642;2022-08-19T06:30:33;19.90;1.00
7248;DHT22;3665;51.034;13.642;2022-08-19T06:35:17;19.80;99.90
7248;DHT22;3665;51.034;13.642;2022-08-19T06:40:01;19.80;1.00
7248;DHT22;3665;51.034;13.642;2022-08-19T06:44:46;19.90;1.00
7248;DHT22;3665;51.034;13.642;2022-08-19T06:49:36;19.90;99.90
7248;DHT22;3665;51.034;13.642;2022-08-19T06:54:20;19.90;1.00
7248;DHT22;3665;51.034;13.642;2022-08-19T06:59:06;19.90;1.00
7248;DHT22;3665;51.034;13.642;2022-08-19T07:03:50;19.90;99.90
7248;DHT22;3665;51.034;13.642;2022-08-19T07:08:37;19.80;99.90
7248;DHT22;3665;51.034;13.642;2022-08-19T07:13:25;19.70;1.00
7248;DHT22;3665;51.034;13.642;2022-08-19T07:18:09;19.70;99.90
7248;DHT22;3665;51.034;13.642;2022-08-19T07:22:53;19.70;99.90
7248;DHT22;3665;51.034;13.642;2022-08-19T07:27:38;19.80;99.90
7248;DHT22;3665;51.034;13.642;2022-08-19T07:32:27;19.70;99.90
7248;DHT22;3665;51.034;13.642;2022-08-19T07:37:13;19.70;99.90
7248;DHT22;3665;51.034;13.642;2022-08-19T07:42:00;19.70;99.90
7248;DHT22;3665;51.034;13.642;2022-08-19T07:46:48;19.70;99.90
7248;DHT22;3665;51.034;13.642;2022-08-19T07:51:34;19.50;99.90
7248;DHT22;3665;51.034;13.642;2022-08-19T07:56:19;19.60;99.90
7248;DHT22;3665;51.034;13.642;2022-08-19T08:01:05;19.60;99.90
7248;DHT22;3665;51.034;13.642;2022-08-19T08:05:51;19.60;99.90
7248;DHT22;3665;51.034;13.642;2022-08-19T08:10:52;19.70;99.90
7248;DHT22;3665;51.034;13.642;2022-08-19T08:15:38;19.70;99.90
7248;DHT22;3665;51.034;13.642;2022-08-19T08:20:24;19.90;99.90
7248;DHT22;3665;51.034;13.642;2022-08-19T08:25:12;20.10;99.90
7248;DHT22;3665;51.034;13.642;2022-08-19T08:29:57;20.20;99.90
7248;DHT22;3665;51.034;13.642;2022-08-19T08:34:44;20.40;99.90
7248;DHT22;3665;51.034;13.642;2022-08-19T08:39:33;20.20;99.90
7248;DHT22;3665;51.034;13.642;2022-08-19T08:44:22;20.20;99.90
7248;DHT22;3665;51.034;13.642;2022-08-19T08:49:18;20.00;99.90
7248;DHT22;3665;51.034;13.642;2022-08-19T08:54:07;20.20;99.90
7248;DHT22;3665;51.034;13.642;2022-08-19T08:58:57;20.30;99.90
7248;DHT22;3665;51.034;13.642;2022-08-19T09:03:46;20.40;99.90
7248;DHT22;3665;51.034;13.642;2022-08-19T09:08:39;20.70;99.90
7248;DHT22;3665;51.034;13.642;2022-08-19T09:13:34;20.90;99.90
7248;DHT22;3665;51.034;13.642;2022-08-19T09:18:20;21.20;99.90
7248;DHT22;3665;51.034;13.642;2022-08-19T09:23:05;21.60;99.90
7248;DHT22;3665;51.034;13.642;2022-08-19T09:27:52;21.90;99.90
7248;DHT22;3665;51.034;13.642;2022-08-19T09:32:44;21.90;99.90
7248;DHT22;3665;51.034;13.642;2022-08-19T09:37:34;22.10;99.90
7248;DHT22;3665;51.034;13.642;2022-08-19T09:42:25;22.20;99.90
7248;DHT22;3665;51.034;13.642;2022-08-19T09:47:13;22.20;99.90
7248;DHT22;3665;51.034;13.642;2022-08-19T09:52:01;22.10;99.90
7248;DHT22;3665;51.034;13.642;2022-08-19T09:56:48;22.40;99.90
7248;DHT22;3665;51.034;13.642;2022-08-19T10:07:37;23.10;1.00
7248;DHT22;3665;51.034;13.642;2022-08-19T10:12:21;22.90;1.00
7248;DHT22;3665;51.034;13.642;2022-08-19T10:17:08;22.70;14.40
7248;DHT22;3665;51.034;13.642;2022-08-19T10:22:06;23.50;1.00
7248;DHT22;3665;51.034;13.642;2022-08-19T10:26:55;24.30;1.00
7248;DHT22;3665;51.034;13.642;2022-08-19T10:31:41;24.00;1.00
7248;DHT22;3665;51.034;13.642;2022-08-19T10:36:43;23.40;1.00
7248;DHT22;3665;51.034;13.642;2022-08-19T10:41:39;23.00;1.00
7248;DHT22;3665;51.034;13.642;2022-08-19T10:46:28;23.50;1.00
7248;DHT22;3665;51.034;13.642;2022-08-19T10:51:15;24.60;1.00
7248;DHT22;3665;51.034;13.642;2022-08-19T10:56:16;25.50;1.00
7248;DHT22;3665;51.034;13.642;2022-08-19T11:01:18;25.90;1.00
7248;DHT22;3665;51.034;13.642;2022-08-19T11:06:06;26.00;1.00
7248;DHT22;3665;51.034;13.642;2022-08-19T11:10:52;25.90;1.00
7248;DHT22;3665;51.034;13.642;2022-08-19T11:15:37;25.00;1.00
7248;DHT22;3665;51.034;13.642;2022-08-19T11:20:21;24.40;1.00
7248;DHT22;3665;51.034;13.642;2022-08-19T11:25:09;23.90;1.00
7248;DHT22;3665;51.034;13.642;2022-08-19T11:29:54;24.00;1.00
7248;DHT22;3665;51.034;13.642;2022-08-19T11:34:38;23.50;1.00
7248;DHT22;3665;51.034;13.642;2022-08-19T11:39:22;23.60;1.00
7248;DHT22;3665;51.034;13.642;2022-08-19T11:44:07;24.10;1.00
7248;DHT22;3665;51.034;13.642;2022-08-19T11:48:51;24.40;1.00
7248;DHT22;3665;51.034;13.642;2022-08-19T11:53:37;24.20;1.00
7248;DHT22;3665;51.034;13.642;2022-08-19T11:58:22;24.10;1.00
7248;DHT22;3665;51.034;13.642;2022-08-19T12:03:11;23.80;1.00
7248;DHT22;3665;51.034;13.642;2022-08-19T12:07:56;23.10;1.00
7248;DHT22;3665;51.034;13.642;2022-08-19T12:12:39;22.70;1.00
7248;DHT22;3665;51.034;13.642;2022-08-19T12:17:28;22.60;1.00
7248;DHT22;3665;51.034;13.642;2022-08-19T12:22:14;22.40;1.00
7248;DHT22;3665;51.034;13.642;2022-08-19T12:26:58;22.40;1.00
7248;DHT22;3665;51.034;13.642;2022-08-19T12:31:44;22.50;1.00
7248;DHT22;3665;51.034;13.642;2022-08-19T12:36:28;22.70;1.00
7248;DHT22;3665;51.034;13.642;2022-08-19T12:41:15;22.70;1.00
7248;DHT22;3665;51.034;13.642;2022-08-19T12:46:00;22.60;1.00
7248;DHT22;3665;51.034;13.642;2022-08-19T12:50:45;22.80;1.00
7248;DHT22;3665;51.034;13.642;2022-08-19T12:55:29;23.20;1.00
7248;DHT22;3665;51.034;13.642;2022-08-19T13:00:17;23.20;1.00
7248;DHT22;3665;51.034;13.642;2022-08-19T13:05:03;23.00;1.00
7248;DHT22;3665;51.034;13.642;2022-08-19T13:09:51;22.90;1.00
7248;DHT22;3665;51.034;13.642;2022-08-19T13:14:40;22.80;1.00
7248;DHT22;3665;51.034;13.642;2022-08-19T13:19:25;22.50;1.00
7248;DHT22;3665;51.034;13.642;2022-08-19T13:24:09;22.80;1.00
7248;DHT22;3665;51.034;13.642;2022-08-19T13:28:52;23.10;1.00
7248;DHT22;3665;51.034;13.642;2022-08-19T13:33:53;22.80;1.00
7248;DHT22;3665;51.034;13.642;2022-08-19T13:38:39;22.30;1.00
7248;DHT22;3665;51.034;13.642;2022-08-19T13:43:25;22.10;1.00
7248;DHT22;3665;51.034;13.642;2022-08-19T13:48:09;21.40;1.00
7248;DHT22;3665;51.034;13.642;2022-08-19T13:52:54;21.00;99.90
7248;DHT22;3665;51.034;13.642;2022-08-19T13:57:40;20.90;99.90
7248;DHT22;3665;51.034;13.642;2022-08-19T14:02:24;21.30;91.50
7248;DHT22;3665;51.034;13.642;2022-08-19T14:07:08;21.80;1.00
7248;DHT22;3665;51.034;13.642;2022-08-19T14:11:53;21.90;1.00
7248;DHT22;3665;51.034;13.642;2022-08-19T14:16:38;21.70;1.00
7248;DHT22;3665;51.034;13.642;2022-08-19T14:21:32;21.70;1.00
7248;DHT22;3665;51.034;13.642;2022-08-19T14:26:23;21.40;1.00
7248;DHT22;3665;51.034;13.642;2022-08-19T14:31:08;21.40;1.00
7248;DHT22;3665;51.034;13.642;2022-08-19T14:35:53;21.40;1.00
7248;DHT22;3665;51.034;13.642;2022-08-19T14:40:41;21.30;1.00
7248;DHT22;3665;51.034;13.642;2022-08-19T14:45:25;21.10;1.00
7248;DHT22;3665;51.034;13.642;2022-08-19T14:50:10;21.10;1.00
7248;DHT22;3665;51.034;13.642;2022-08-19T14:55:01;21.30;1.00
7248;DHT22;3665;51.034;13.642;2022-08-19T14:59:49;21.50;1.00
7248;DHT22;3665;51.034;13.642;2022-08-19T15:04:32;21.80;1.00
7248;DHT22;3665;51.034;13.642;2022-08-19T15:09:16;22.00;1.00
7248;DHT22;3665;51.034;13.642;2022-08-19T15:14:01;22.20;1.00
7248;DHT22;3665;51.034;13.642;2022-08-19T15:18:46;22.10;1.00
7248;DHT22;3665;51.034;13.642;2022-08-19T15:23:32;22.00;1.00
7248;DHT22;3665;51.034;13.642;2022-08-19T15:28:15;21.90;1.00
7248;DHT22;3665;51.034;13.642;2022-08-19T15:33:01;21.80;1.00
7248;DHT22;3665;51.034;13.642;2022-08-19T15:37:47;21.80;1.00
7248;DHT22;3665;51.034;13.642;2022-08-19T15:42:31;21.80;1.00
7248;DHT22;3665;51.034;13.642;2022-08-19T15:47:15;21.90;1.00
7248;DHT22;3665;51.034;13.642;2022-08-19T15:52:03;21.90;1.00
7248;DHT22;3665;51.034;13.642;2022-08-19T15:56:49;22.00;1.00
7248;DHT22;3665;51.034;13.642;2022-08-19T16:01:50;22.20;1.00
7248;DHT22;3665;51.034;13.642;2022-08-19T16:06:55;22.30;1.00
7248;DHT22;3665;51.034;13.642;2022-08-19T16:11:41;22.20;1.00
7248;DHT22;3665;51.034;13.642;2022-08-19T16:16:29;22.20;1.00
7248;DHT22;3665;51.034;13.642;2022-08-19T16:21:15;21.90;1.00
7248;DHT22;3665;51.034;13.642;2022-08-19T16:25:59;21.50;1.00
7248;DHT22;3665;51.034;13.642;2022-08-19T16:30:45;21.30;1.00
7248;DHT22;3665;51.034;13.642;2022-08-19T16:35:32;21.30;1.00
7248;DHT22;3665;51.034;13.642;2022-08-19T16:40:16;21.30;1.00
7248;DHT22;3665;51.034;13.642;2022-08-19T16:45:00;21.40;1.00
7248;DHT22;3665;51.034;13.642;2022-08-19T16:49:46;21.40;1.00
7248;DHT22;3665;51.034;13.642;2022-08-19T16:54:37;21.60;1.00
7248;DHT22;3665;51.034;13.642;2022-08-19T16:59:21;21.50;1.00
7248;DHT22;3665;51.034;13.642;2022-08-19T17:04:29;21.40;1.00
7248;DHT22;3665;51.034;13.642;2022-08-19T17:09:14;21.40;1.00
7248;DHT22;3665;51.034;13.642;2022-08-19T17:14:07;21.20;1.00
7248;DHT22;3665;51.034;13.642;2022-08-19T17:18:51;21.20;1.00
7248;DHT22;3665;51.034;13.642;2022-08-19T17:23:35;21.10;1.00
7248;DHT22;3665;51.034;13.642;2022-08-19T17:28:29;21.10;1.00
7248;DHT22;3665;51.034;13.642;2022-08-19T17:33:13;21.10;1.00
7248;DHT22;3665;51.034;13.642;2022-08-19T17:38:00;20.90;1.00
7248;DHT22;3665;51.034;13.642;2022-08-19T17:42:46;20.80;1.00
7248;DHT22;3665;51.034;13.642;2022-08-19T17:47:31;20.70;1.00
7248;DHT22;3665;51.034;13.642;2022-08-19T17:52:14;20.60;1.00
7248;DHT22;3665;51.034;13.642;2022-08-19T17:56:58;20.60;1.00
7248;DHT22;3665;51.034;13.642;2022-08-19T18:01:43;20.50;4.90
7248;DHT22;3665;51.034;13.642;2022-08-19T18:06:36;20.40;47.50
7248;DHT22;3665;51.034;13.642;2022-08-19T18:11:20;20.40;31.30
7248;DHT22;3665;51.034;13.642;2022-08-19T18:16:04;20.40;7.20
7248;DHT22;3665;51.034;13.642;2022-08-19T18:20:53;20.30;58.20
7248;DHT22;3665;51.034;13.642;2022-08-19T18:25:42;20.20;96.80
7248;DHT22;3665;51.034;13.642;2022-08-19T18:30:27;20.10;99.90
7248;DHT22;3665;51.034;13.642;2022-08-19T18:35:17;20.20;99.90
7248;DHT22;3665;51.034;13.642;2022-08-19T18:40:02;20.10;99.90
7248;DHT22;3665;51.034;13.642;2022-08-19T18:45:06;20.10;97.60
7248;DHT22;3665;51.034;13.642;2022-08-19T18:50:07;20.10;99.90
7248;DHT22;3665;51.034;13.642;2022-08-19T18:54:55;20.10;99.90
7248;DHT22;3665;51.034;13.642;2022-08-19T18:59:40;20.10;53.80
7248;DHT22;3665;51.034;13.642;2022-08-19T19:04:29;19.90;99.90
7248;DHT22;3665;51.034;13.642;2022-08-19T19:09:15;19.90;99.90
7248;DHT22;3665;51.034;13.642;2022-08-19T19:14:00;19.90;73.50
7248;DHT22;3665;51.034;13.642;2022-08-19T19:18:44;19.90;70.30
7248;DHT22;3665;51.034;13.642;2022-08-19T19:23:29;19.80;99.90
7248;DHT22;3665;51.034;13.642;2022-08-19T19:28:13;19.70;99.90
7248;DHT22;3665;51.034;13.642;2022-08-19T19:32:57;19.70;59.20
7248;DHT22;3665;51.034;13.642;2022-08-19T19:37:42;19.60;89.60
7248;DHT22;3665;51.034;13.642;2022-08-19T19:42:28;19.60;99.90
7248;DHT22;3665;51.034;13.642;2022-08-19T19:47:11;19.60;90.90
7248;DHT22;3665;51.034;13.642;2022-08-19T19:51:56;19.60;79.30
7248;DHT22;3665;51.034;13.642;2022-08-19T19:56:40;19.60;83.70
7248;DHT22;3665;51.034;13.642;2022-08-19T20:01:28;19.50;99.80
7248;DHT22;3665;51.034;13.642;2022-08-19T20:06:14;19.50;68.60
7248;DHT22;3665;51.034;13.642;2022-08-19T20:11:00;19.50;57.50
7248;DHT22;3665;51.034;13.642;2022-08-19T20:15:44;19.50;61.80
7248;DHT22;3665;51.034;13.642;2022-08-19T20:20:29;19.50;94.20
7248;DHT22;3665;51.034;13.642;2022-08-19T20:25:14;19.50;73.40
7248;DHT22;3665;51.034;13.642;2022-08-19T20:29:57;19.50;99.90
7248;DHT22;3665;51.034;13.642;2022-08-19T20:34:44;19.40;99.90
7248;DHT22;3665;51.034;13.642;2022-08-19T20:39:31;19.40;99.90
7248;DHT22;3665;51.034;13.642;2022-08-19T20:44:15;19.40;99.90
7248;DHT22;3665;51.034;13.642;2022-08-19T20:48:59;19.40;99.90
7248;DHT22;3665;51.034;13.642;2022-08-19T20:53:55;19.40;99.90
7248;DHT22;3665;51.034;13.642;2022-08-19T20:58:42;19.40;99.90
7248;DHT22;3665;51.034;13.642;2022-08-19T21:03:34;19.40;97.20
7248;DHT22;3665;51.034;13.642;2022-08-19T21:08:25;19.40;99.90
7248;DHT22;3665;51.034;13.642;2022-08-19T21:13:09;19.50;73.60
7248;DHT22;3665;51.034;13.642;2022-08-19T21:17:55;19.50;54.50
7248;DHT22;3665;51.034;13.642;2022-08-19T21:22:38;19.30;99.90
7248;DHT22;3665;51.034;13.642;2022-08-19T21:27:23;19.40;99.90
7248;DHT22;3665;51.034;13.642;2022-08-19T21:32:07;19.20;99.90
7248;DHT22;3665;51.034;13.642;2022-08-19T21:36:57;19.20;99.90
7248;DHT22;3665;51.034;13.642;2022-08-19T21:41:40;19.30;99.90
7248;DHT22;3665;51.034;13.642;2022-08-19T21:46:24;19.30;99.90
7248;DHT22;3665;51.034;13.642;2022-08-19T21:51:09;19.20;99.90
7248;DHT22;3665;51.034;13.642;2022-08-19T21:55:54;19.10;99.90
7248;DHT22;3665;51.034;13.642;2022-08-19T22:00:38;19.10;99.90
7248;DHT22;3665;51.034;13.642;2022-08-19T22:05:22;19.00;99.90
7248;DHT22;3665;51.034;13.642;2022-08-19T22:10:06;18.90;99.90
7248;DHT22;3665;51.034;13.642;2022-08-19T22:14:53;18.80;1.00
7248;DHT22;3665;51.034;13.642;2022-08-19T22:19:36;18.80;1.00
7248;DHT22;3665;51.034;13.642;2022-08-19T22:24:20;18.70;1.00
7248;DHT22;3665;51.034;13.642;2022-08-19T22:29:04;18.80;1.00
7248;DHT22;3665;51.034;13.642;2022-08-19T22:33:49;18.80;46.40
7248;DHT22;3665;51.034;13.642;2022-08-19T22:38:34;18.80;1.00
7248;DHT22;3665;51.034;13.642;2022-08-19T22:43:20;18.80;1.00
7248;DHT22;3665;51.034;13.642;2022-08-19T22:48:06;18.90;1.00
7248;DHT22;3665;51.034;13.642;2022-08-19T22:52:55;18.90;1.00
7248;DHT22;3665;51.034;13.642;2022-08-19T22:57:40;18.90;1.00
7248;DHT22;3665;51.034;13.642;2022-08-19T23:02:28;18.90;1.00
7248;DHT22;3665;51.034;13.642;2022-08-19T23:07:12;19.00;1.00
7248;DHT22;3665;51.034;13.642;2022-08-19T23:11:57;19.00;1.00
7248;DHT22;3665;51.034;13.642;2022-08-19T23:16:42;19.00;1.00
7248;DHT22;3665;51.034;13.642;2022-08-19T23:21:32;19.00;1.00
7248;DHT22;3665;51.034;13.642;2022-08-19T23:26:16;19.00;1.00
7248;DHT22;3665;51.034;13.642;2022-08-19T23:31:01;19.00;1.00
7248;DHT22;3665;51.034;13.642;2022-08-19T23:35:44;19.10;99.90
7248;DHT22;3665;51.034;13.642;2022-08-19T23:40:28;19.10;99.90
7248;DHT22;3665;51.034;13.642;2022-08-19T23:45:12;19.10;99.90
7248;DHT22;3665;51.034;13.642;2022-08-19T23:50:07;19.00;99.90
7248;DHT22;3665;51.034;13.642;2022-08-19T23:54:51;18.90;1.00
7248;DHT22;3665;51.034;13.642;2022-08-19T23:59:41;18.90;99.90
